sensor_id;sensor_type;location;lat;lon;timestamp;P1;durP1;ratioP1;P2;durP2;ratioP2
51594;SDS011;37677;53.254;6.594;2023-12-07T00:01:32;9.48;;;8.48;;
51594;SDS011;37677;53.254;6.594;2023-12-07T00:03:59;9.13;;;8.27;;
51594;SDS011;37677;53.254;6.594;2023-12-07T00:06:27;10.77;;;8.88;;
51594;SDS011;37677;53.254;6.594;2023-12-07T00:08:53;10.52;;;9.13;;
51594;SDS011;37677;53.254;6.594;2023-12-07T00:11:21;11.20;;;9.27;;
51594;SDS011;37677;53.254;6.594;2023-12-07T00:13:50;12.35;;;9.68;;
51594;SDS011;37677;53.254;6.594;2023-12-07T00:16:16;11.85;;;8.75;;
51594;SDS011;37677;53.254;6.594;2023-12-07T00:18:42;13.75;;;9.32;;
51594;SDS011;37677;53.254;6.594;2023-12-07T00:21:10;9.20;;;8.30;;
51594;SDS011;37677;53.254;6.594;2023-12-07T00:23:36;9.77;;;8.38;;
51594;SDS011;37677;53.254;6.594;2023-12-07T00:26:03;12.85;;;8.85;;
51594;SDS011;37677;53.254;6.594;2023-12-07T00:28:30;9.95;;;8.10;;
51594;SDS011;37677;53.254;6.594;2023-12-07T00:30:56;10.23;;;8.98;;
51594;SDS011;37677;53.254;6.594;2023-12-07T00:33:22;11.02;;;9.07;;
51594;SDS011;37677;53.254;6.594;2023-12-07T00:35:48;10.23;;;9.10;;
51594;SDS011;37677;53.254;6.594;2023-12-07T00:38:14;10.25;;;9.25;;
51594;SDS011;37677;53.254;6.594;2023-12-07T00:40:40;9.10;;;8.07;;
51594;SDS011;37677;53.254;6.594;2023-12-07T00:43:07;10.70;;;8.48;;
51594;SDS011;37677;53.254;6.594;2023-12-07T00:45:33;9.52;;;8.52;;
51594;SDS011;37677;53.254;6.594;2023-12-07T00:47:59;9.88;;;8.68;;
51594;SDS011;37677;53.254;6.594;2023-12-07T00:50:26;9.60;;;8.48;;
51594;SDS011;37677;53.254;6.594;2023-12-07T00:52:52;10.43;;;9.25;;
51594;SDS011;37677;53.254;6.594;2023-12-07T00:55:18;14.93;;;9.27;;
51594;SDS011;37677;53.254;6.594;2023-12-07T00:57:44;11.68;;;9.43;;
51594;SDS011;37677;53.254;6.594;2023-12-07T01:00:11;12.43;;;9.48;;
51594;SDS011;37677;53.254;6.594;2023-12-07T01:02:40;9.27;;;8.38;;
51594;SDS011;37677;53.254;6.594;2023-12-07T01:05:08;9.95;;;8.93;;
51594;SDS011;37677;53.254;6.594;2023-12-07T01:07:34;9.95;;;8.45;;
51594;SDS011;37677;53.254;6.594;2023-12-07T01:10:00;15.57;;;8.27;;
51594;SDS011;37677;53.254;6.594;2023-12-07T01:12:27;8.60;;;7.80;;
51594;SDS011;37677;53.254;6.594;2023-12-07T01:14:53;11.60;;;8.23;;
51594;SDS011;37677;53.254;6.594;2023-12-07T01:17:19;9.98;;;8.45;;
51594;SDS011;37677;53.254;6.594;2023-12-07T01:19:45;9.35;;;8.40;;
51594;SDS011;37677;53.254;6.594;2023-12-07T01:22:12;9.35;;;8.43;;
51594;SDS011;37677;53.254;6.594;2023-12-07T01:24:38;8.85;;;7.95;;
51594;SDS011;37677;53.254;6.594;2023-12-07T01:27:04;10.35;;;9.25;;
51594;SDS011;37677;53.254;6.594;2023-12-07T01:29:30;9.43;;;8.40;;
51594;SDS011;37677;53.254;6.594;2023-12-07T01:31:56;11.10;;;8.80;;
51594;SDS011;37677;53.254;6.594;2023-12-07T01:34:22;9.38;;;8.27;;
51594;SDS011;37677;53.254;6.594;2023-12-07T01:36:50;8.95;;;8.05;;
51594;SDS011;37677;53.254;6.594;2023-12-07T01:39:18;11.50;;;8.63;;
51594;SDS011;37677;53.254;6.594;2023-12-07T01:41:44;11.73;;;8.77;;
51594;SDS011;37677;53.254;6.594;2023-12-07T01:44:10;8.85;;;7.93;;
51594;SDS011;37677;53.254;6.594;2023-12-07T01:46:37;8.60;;;7.70;;
51594;SDS011;37677;53.254;6.594;2023-12-07T01:49:03;8.82;;;7.68;;
51594;SDS011;37677;53.254;6.594;2023-12-07T01:51:29;11.02;;;8.55;;
51594;SDS011;37677;53.254;6.594;2023-12-07T01:53:58;9.07;;;7.78;;
51594;SDS011;37677;53.254;6.594;2023-12-07T01:56:24;10.07;;;7.80;;
51594;SDS011;37677;53.254;6.594;2023-12-07T01:58:51;10.73;;;8.00;;
51594;SDS011;37677;53.254;6.594;2023-12-07T02:01:20;8.90;;;8.00;;
51594;SDS011;37677;53.254;6.594;2023-12-07T02:03:53;9.65;;;8.18;;
51594;SDS011;37677;53.254;6.594;2023-12-07T02:06:19;8.93;;;7.30;;
51594;SDS011;37677;53.254;6.594;2023-12-07T02:08:46;10.77;;;8.32;;
51594;SDS011;37677;53.254;6.594;2023-12-07T02:11:12;8.45;;;7.60;;
51594;SDS011;37677;53.254;6.594;2023-12-07T02:13:38;8.65;;;7.75;;
51594;SDS011;37677;53.254;6.594;2023-12-07T02:16:07;8.23;;;7.40;;
51594;SDS011;37677;53.254;6.594;2023-12-07T02:18:40;8.70;;;7.90;;
51594;SDS011;37677;53.254;6.594;2023-12-07T02:21:15;9.27;;;8.15;;
51594;SDS011;37677;53.254;6.594;2023-12-07T02:23:43;11.55;;;8.10;;
51594;SDS011;37677;53.254;6.594;2023-12-07T02:26:10;8.70;;;7.80;;
51594;SDS011;37677;53.254;6.594;2023-12-07T02:28:37;7.45;;;6.75;;
51594;SDS011;37677;53.254;6.594;2023-12-07T02:31:05;9.50;;;7.40;;
51594;SDS011;37677;53.254;6.594;2023-12-07T02:33:31;8.45;;;7.28;;
51594;SDS011;37677;53.254;6.594;2023-12-07T02:35:57;8.90;;;7.50;;
51594;SDS011;37677;53.254;6.594;2023-12-07T02:38:25;8.93;;;7.43;;
51594;SDS011;37677;53.254;6.594;2023-12-07T02:40:54;11.63;;;7.30;;
51594;SDS011;37677;53.254;6.594;2023-12-07T02:43:21;8.90;;;8.00;;
51594;SDS011;37677;53.254;6.594;2023-12-07T02:45:47;9.07;;;7.70;;
51594;SDS011;37677;53.254;6.594;2023-12-07T02:48:14;12.95;;;7.95;;
51594;SDS011;37677;53.254;6.594;2023-12-07T02:50:42;8.07;;;7.25;;
51594;SDS011;37677;53.254;6.594;2023-12-07T02:53:10;9.18;;;8.15;;
51594;SDS011;37677;53.254;6.594;2023-12-07T02:55:36;8.15;;;7.35;;
51594;SDS011;37677;53.254;6.594;2023-12-07T02:58:03;8.27;;;7.10;;
51594;SDS011;37677;53.254;6.594;2023-12-07T03:00:30;8.90;;;7.57;;
51594;SDS011;37677;53.254;6.594;2023-12-07T03:02:56;11.10;;;7.35;;
51594;SDS011;37677;53.254;6.594;2023-12-07T03:05:30;7.80;;;6.90;;
51594;SDS011;37677;53.254;6.594;2023-12-07T03:08:01;9.65;;;7.22;;
51594;SDS011;37677;53.254;6.594;2023-12-07T03:10:27;9.13;;;7.10;;
51594;SDS011;37677;53.254;6.594;2023-12-07T03:12:53;8.13;;;7.28;;
51594;SDS011;37677;53.254;6.594;2023-12-07T03:15:19;14.23;;;7.43;;
51594;SDS011;37677;53.254;6.594;2023-12-07T03:17:48;7.75;;;6.95;;
51594;SDS011;37677;53.254;6.594;2023-12-07T03:20:14;8.32;;;7.45;;
51594;SDS011;37677;53.254;6.594;2023-12-07T03:22:41;11.25;;;6.90;;
51594;SDS011;37677;53.254;6.594;2023-12-07T03:25:07;7.47;;;6.78;;
51594;SDS011;37677;53.254;6.594;2023-12-07T03:27:33;7.40;;;6.70;;
51594;SDS011;37677;53.254;6.594;2023-12-07T03:30:00;8.27;;;6.95;;
51594;SDS011;37677;53.254;6.594;2023-12-07T03:32:26;7.97;;;7.10;;
51594;SDS011;37677;53.254;6.594;2023-12-07T03:34:52;10.02;;;6.97;;
51594;SDS011;37677;53.254;6.594;2023-12-07T03:37:18;8.88;;;6.65;;
51594;SDS011;37677;53.254;6.594;2023-12-07T03:39:48;7.57;;;6.80;;
51594;SDS011;37677;53.254;6.594;2023-12-07T03:54:09;7.35;;;6.50;;
51594;SDS011;37677;53.254;6.594;2023-12-07T03:56:54;6.82;;;6.07;;
51594;SDS011;37677;53.254;6.594;2023-12-07T03:59:58;8.52;;;6.60;;
51594;SDS011;37677;53.254;6.594;2023-12-07T04:02:42;6.05;;;5.55;;
51594;SDS011;37677;53.254;6.594;2023-12-07T04:11:35;6.82;;;5.78;;
51594;SDS011;37677;53.254;6.594;2023-12-07T04:16:48;8.40;;;6.18;;
51594;SDS011;37677;53.254;6.594;2023-12-07T04:28:26;6.55;;;5.90;;
51594;SDS011;37677;53.254;6.594;2023-12-07T04:31:30;6.97;;;6.07;;
51594;SDS011;37677;53.254;6.594;2023-12-07T04:34:15;7.97;;;6.05;;
51594;SDS011;37677;53.254;6.594;2023-12-07T07:56:23;9.93;;;8.93;;
51594;SDS011;37677;53.254;6.594;2023-12-07T07:58:49;9.77;;;8.75;;
51594;SDS011;37677;53.254;6.594;2023-12-07T08:01:15;9.57;;;8.57;;
51594;SDS011;37677;53.254;6.594;2023-12-07T08:03:41;10.45;;;9.23;;
51594;SDS011;37677;53.254;6.594;2023-12-07T08:06:07;10.27;;;9.10;;
51594;SDS011;37677;53.254;6.594;2023-12-07T08:08:33;9.70;;;8.60;;
51594;SDS011;37677;53.254;6.594;2023-12-07T08:10:59;10.07;;;9.18;;
51594;SDS011;37677;53.254;6.594;2023-12-07T08:13:26;13.15;;;10.27;;
51594;SDS011;37677;53.254;6.594;2023-12-07T08:15:52;11.75;;;10.38;;
51594;SDS011;37677;53.254;6.594;2023-12-07T08:18:18;12.23;;;10.32;;
51594;SDS011;37677;53.254;6.594;2023-12-07T08:20:46;11.95;;;10.10;;
51594;SDS011;37677;53.254;6.594;2023-12-07T08:23:12;12.30;;;9.90;;
51594;SDS011;37677;53.254;6.594;2023-12-07T08:25:38;12.63;;;10.38;;
51594;SDS011;37677;53.254;6.594;2023-12-07T08:28:05;11.07;;;9.90;;
51594;SDS011;37677;53.254;6.594;2023-12-07T08:30:34;11.32;;;10.13;;
51594;SDS011;37677;53.254;6.594;2023-12-07T08:33:00;11.90;;;9.77;;
51594;SDS011;37677;53.254;6.594;2023-12-07T08:35:26;12.05;;;10.57;;
51594;SDS011;37677;53.254;6.594;2023-12-07T08:37:52;11.93;;;9.85;;
51594;SDS011;37677;53.254;6.594;2023-12-07T08:40:18;11.32;;;9.77;;
51594;SDS011;37677;53.254;6.594;2023-12-07T08:42:45;13.20;;;10.93;;
51594;SDS011;37677;53.254;6.594;2023-12-07T08:45:12;12.32;;;10.35;;
51594;SDS011;37677;53.254;6.594;2023-12-07T08:47:41;14.00;;;10.85;;
51594;SDS011;37677;53.254;6.594;2023-12-07T08:50:07;13.68;;;12.27;;
51594;SDS011;37677;53.254;6.594;2023-12-07T08:55:05;11.10;;;10.00;;
51594;SDS011;37677;53.254;6.594;2023-12-07T08:57:31;11.60;;;10.40;;
51594;SDS011;37677;53.254;6.594;2023-12-07T08:59:57;11.25;;;10.15;;
51594;SDS011;37677;53.254;6.594;2023-12-07T09:02:24;12.40;;;11.20;;
51594;SDS011;37677;53.254;6.594;2023-12-07T09:04:51;13.43;;;11.10;;
51594;SDS011;37677;53.254;6.594;2023-12-07T09:07:17;12.40;;;11.18;;
51594;SDS011;37677;53.254;6.594;2023-12-07T09:09:44;15.43;;;10.80;;
51594;SDS011;37677;53.254;6.594;2023-12-07T09:12:13;12.50;;;10.13;;
51594;SDS011;37677;53.254;6.594;2023-12-07T09:14:39;13.48;;;11.63;;
51594;SDS011;37677;53.254;6.594;2023-12-07T09:17:06;14.02;;;10.50;;
51594;SDS011;37677;53.254;6.594;2023-12-07T09:19:32;14.13;;;10.70;;
51594;SDS011;37677;53.254;6.594;2023-12-07T09:21:59;13.10;;;11.57;;
51594;SDS011;37677;53.254;6.594;2023-12-07T09:24:25;13.52;;;11.02;;
51594;SDS011;37677;53.254;6.594;2023-12-07T09:26:52;13.57;;;11.48;;
51594;SDS011;37677;53.254;6.594;2023-12-07T09:29:18;13.07;;;11.43;;
51594;SDS011;37677;53.254;6.594;2023-12-07T09:31:44;11.75;;;10.32;;
51594;SDS011;37677;53.254;6.594;2023-12-07T09:34:10;11.68;;;10.48;;
51594;SDS011;37677;53.254;6.594;2023-12-07T09:36:36;12.00;;;10.80;;
51594;SDS011;37677;53.254;6.594;2023-12-07T09:39:03;12.00;;;10.80;;
51594;SDS011;37677;53.254;6.594;2023-12-07T09:41:29;11.95;;;10.75;;
51594;SDS011;37677;53.254;6.594;2023-12-07T09:43:55;13.27;;;10.90;;
51594;SDS011;37677;53.254;6.594;2023-12-07T09:46:21;14.30;;;12.20;;
51594;SDS011;37677;53.254;6.594;2023-12-07T09:48:48;14.48;;;12.48;;
51594;SDS011;37677;53.254;6.594;2023-12-07T09:51:17;13.05;;;11.00;;
51594;SDS011;37677;53.254;6.594;2023-12-07T09:53:45;15.02;;;12.40;;
51594;SDS011;37677;53.254;6.594;2023-12-07T09:56:11;13.95;;;12.20;;
51594;SDS011;37677;53.254;6.594;2023-12-07T09:58:39;14.20;;;12.07;;
51594;SDS011;37677;53.254;6.594;2023-12-07T10:01:07;14.38;;;12.88;;
51594;SDS011;37677;53.254;6.594;2023-12-07T10:03:33;14.00;;;12.32;;
51594;SDS011;37677;53.254;6.594;2023-12-07T10:05:59;14.55;;;13.02;;
51594;SDS011;37677;53.254;6.594;2023-12-07T10:08:30;16.48;;;14.25;;
51594;SDS011;37677;53.254;6.594;2023-12-07T10:13:30;16.17;;;14.45;;
51594;SDS011;37677;53.254;6.594;2023-12-07T10:16:05;15.82;;;14.10;;
51594;SDS011;37677;53.254;6.594;2023-12-07T10:18:32;17.02;;;14.20;;
51594;SDS011;37677;53.254;6.594;2023-12-07T10:20:58;16.42;;;14.57;;
51594;SDS011;37677;53.254;6.594;2023-12-07T10:23:26;19.63;;;15.80;;
51594;SDS011;37677;53.254;6.594;2023-12-07T10:25:54;17.98;;;15.30;;
51594;SDS011;37677;53.254;6.594;2023-12-07T10:28:21;17.45;;;15.32;;
51594;SDS011;37677;53.254;6.594;2023-12-07T10:30:47;19.35;;;16.15;;
51594;SDS011;37677;53.254;6.594;2023-12-07T10:33:13;17.63;;;14.77;;
51594;SDS011;37677;53.254;6.594;2023-12-07T10:35:39;17.73;;;15.82;;
51594;SDS011;37677;53.254;6.594;2023-12-07T10:38:06;18.20;;;16.25;;
51594;SDS011;37677;53.254;6.594;2023-12-07T10:40:32;18.90;;;16.13;;
51594;SDS011;37677;53.254;6.594;2023-12-07T10:42:58;18.13;;;16.30;;
51594;SDS011;37677;53.254;6.594;2023-12-07T10:45:26;19.27;;;15.95;;
51594;SDS011;37677;53.254;6.594;2023-12-07T10:47:56;17.08;;;15.27;;
51594;SDS011;37677;53.254;6.594;2023-12-07T10:50:23;17.13;;;15.20;;
51594;SDS011;37677;53.254;6.594;2023-12-07T10:52:53;17.48;;;14.80;;
51594;SDS011;37677;53.254;6.594;2023-12-07T10:55:20;15.57;;;14.05;;
51594;SDS011;37677;53.254;6.594;2023-12-07T10:57:52;16.92;;;15.23;;
51594;SDS011;37677;53.254;6.594;2023-12-07T11:00:20;15.77;;;13.23;;
51594;SDS011;37677;53.254;6.594;2023-12-07T11:02:52;16.73;;;14.35;;
51594;SDS011;37677;53.254;6.594;2023-12-07T11:05:18;15.25;;;12.77;;
51594;SDS011;37677;53.254;6.594;2023-12-07T11:10:21;14.77;;;12.40;;
51594;SDS011;37677;53.254;6.594;2023-12-07T11:12:53;14.10;;;12.68;;
51594;SDS011;37677;53.254;6.594;2023-12-07T11:15:22;14.25;;;12.73;;
51594;SDS011;37677;53.254;6.594;2023-12-07T11:17:52;16.35;;;12.27;;
51594;SDS011;37677;53.254;6.594;2023-12-07T11:20:22;13.35;;;11.07;;
51594;SDS011;37677;53.254;6.594;2023-12-07T11:22:49;13.55;;;12.13;;
51594;SDS011;37677;53.254;6.594;2023-12-07T11:25:15;13.02;;;11.73;;
51594;SDS011;37677;53.254;6.594;2023-12-07T11:27:43;16.02;;;12.20;;
51594;SDS011;37677;53.254;6.594;2023-12-07T11:30:12;15.30;;;12.00;;
51594;SDS011;37677;53.254;6.594;2023-12-07T11:32:39;15.65;;;10.93;;
51594;SDS011;37677;53.254;6.594;2023-12-07T11:35:05;12.90;;;11.15;;
51594;SDS011;37677;53.254;6.594;2023-12-07T11:40:17;14.13;;;11.57;;
51594;SDS011;37677;53.254;6.594;2023-12-07T11:42:43;13.73;;;12.25;;
51594;SDS011;37677;53.254;6.594;2023-12-07T11:45:09;14.50;;;12.00;;
51594;SDS011;37677;53.254;6.594;2023-12-07T11:47:35;15.85;;;12.10;;
51594;SDS011;37677;53.254;6.594;2023-12-07T11:50:02;14.57;;;11.77;;
51594;SDS011;37677;53.254;6.594;2023-12-07T11:52:29;14.15;;;11.75;;
51594;SDS011;37677;53.254;6.594;2023-12-07T11:54:55;15.52;;;12.52;;
51594;SDS011;37677;53.254;6.594;2023-12-07T11:57:21;14.20;;;12.00;;
51594;SDS011;37677;53.254;6.594;2023-12-07T11:59:47;11.95;;;10.85;;
51594;SDS011;37677;53.254;6.594;2023-12-07T12:02:13;14.23;;;11.20;;
51594;SDS011;37677;53.254;6.594;2023-12-07T12:04:40;12.32;;;11.00;;
51594;SDS011;37677;53.254;6.594;2023-12-07T12:07:06;15.90;;;11.25;;
51594;SDS011;37677;53.254;6.594;2023-12-07T12:09:32;15.98;;;10.95;;
51594;SDS011;37677;53.254;6.594;2023-12-07T12:11:59;14.15;;;11.15;;
51594;SDS011;37677;53.254;6.594;2023-12-07T12:14:26;13.88;;;11.35;;
51594;SDS011;37677;53.254;6.594;2023-12-07T12:16:52;13.82;;;12.32;;
51594;SDS011;37677;53.254;6.594;2023-12-07T12:19:18;15.15;;;11.98;;
51594;SDS011;37677;53.254;6.594;2023-12-07T12:21:45;12.50;;;11.13;;
51594;SDS011;37677;53.254;6.594;2023-12-07T12:24:12;18.05;;;11.35;;
51594;SDS011;37677;53.254;6.594;2023-12-07T12:26:42;13.02;;;11.25;;
51594;SDS011;37677;53.254;6.594;2023-12-07T12:29:08;13.90;;;11.13;;
51594;SDS011;37677;53.254;6.594;2023-12-07T12:31:37;13.65;;;11.63;;
51594;SDS011;37677;53.254;6.594;2023-12-07T12:34:05;13.05;;;11.15;;
51594;SDS011;37677;53.254;6.594;2023-12-07T12:36:33;13.23;;;11.75;;
51594;SDS011;37677;53.254;6.594;2023-12-07T12:38:59;12.70;;;11.50;;
51594;SDS011;37677;53.254;6.594;2023-12-07T12:41:27;12.05;;;10.68;;
51594;SDS011;37677;53.254;6.594;2023-12-07T12:43:56;18.92;;;11.15;;
51594;SDS011;37677;53.254;6.594;2023-12-07T12:46:22;12.38;;;11.00;;
51594;SDS011;37677;53.254;6.594;2023-12-07T12:49:00;15.02;;;11.40;;
51594;SDS011;37677;53.254;6.594;2023-12-07T12:51:27;13.77;;;12.07;;
51594;SDS011;37677;53.254;6.594;2023-12-07T12:53:54;13.68;;;12.32;;
51594;SDS011;37677;53.254;6.594;2023-12-07T12:56:20;13.48;;;12.07;;
51594;SDS011;37677;53.254;6.594;2023-12-07T12:58:48;15.43;;;13.82;;
51594;SDS011;37677;53.254;6.594;2023-12-07T13:01:15;16.17;;;13.45;;
51594;SDS011;37677;53.254;6.594;2023-12-07T13:03:43;16.02;;;14.23;;
51594;SDS011;37677;53.254;6.594;2023-12-07T13:06:11;16.63;;;14.88;;
51594;SDS011;37677;53.254;6.594;2023-12-07T13:08:40;18.35;;;16.38;;
51594;SDS011;37677;53.254;6.594;2023-12-07T13:11:06;18.05;;;16.25;;
51594;SDS011;37677;53.254;6.594;2023-12-07T13:13:32;19.58;;;17.45;;
51594;SDS011;37677;53.254;6.594;2023-12-07T13:15:58;19.67;;;16.92;;
51594;SDS011;37677;53.254;6.594;2023-12-07T13:18:25;19.77;;;17.67;;
51594;SDS011;37677;53.254;6.594;2023-12-07T13:23:21;24.23;;;18.90;;
51594;SDS011;37677;53.254;6.594;2023-12-07T13:25:48;19.85;;;17.75;;
51594;SDS011;37677;53.254;6.594;2023-12-07T13:28:14;40.75;;;17.67;;
51594;SDS011;37677;53.254;6.594;2023-12-07T13:30:40;20.65;;;18.40;;
51594;SDS011;37677;53.254;6.594;2023-12-07T13:33:06;20.88;;;17.60;;
51594;SDS011;37677;53.254;6.594;2023-12-07T13:35:34;18.73;;;16.77;;
51594;SDS011;37677;53.254;6.594;2023-12-07T13:38:00;18.25;;;16.35;;
51594;SDS011;37677;53.254;6.594;2023-12-07T13:40:26;19.77;;;17.15;;
51594;SDS011;37677;53.254;6.594;2023-12-07T13:42:53;19.00;;;16.77;;
51594;SDS011;37677;53.254;6.594;2023-12-07T13:45:20;18.13;;;16.20;;
51594;SDS011;37677;53.254;6.594;2023-12-07T13:47:46;34.47;;;17.70;;
51594;SDS011;37677;53.254;6.594;2023-12-07T13:50:13;18.48;;;15.77;;
51594;SDS011;37677;53.254;6.594;2023-12-07T13:52:40;18.92;;;16.88;;
51594;SDS011;37677;53.254;6.594;2023-12-07T13:55:08;18.63;;;16.63;;
51594;SDS011;37677;53.254;6.594;2023-12-07T13:57:34;29.27;;;16.02;;
51594;SDS011;37677;53.254;6.594;2023-12-07T14:00:06;21.17;;;18.58;;
51594;SDS011;37677;53.254;6.594;2023-12-07T14:02:43;18.52;;;16.63;;
51594;SDS011;37677;53.254;6.594;2023-12-07T14:05:09;19.42;;;17.35;;
51594;SDS011;37677;53.254;6.594;2023-12-07T14:07:35;19.05;;;17.00;;
51594;SDS011;37677;53.254;6.594;2023-12-07T14:10:02;23.23;;;19.58;;
51594;SDS011;37677;53.254;6.594;2023-12-07T14:12:28;21.52;;;19.08;;
51594;SDS011;37677;53.254;6.594;2023-12-07T14:14:54;24.92;;;19.15;;
51594;SDS011;37677;53.254;6.594;2023-12-07T14:17:21;23.15;;;17.75;;
51594;SDS011;37677;53.254;6.594;2023-12-07T14:19:49;21.63;;;18.90;;
51594;SDS011;37677;53.254;6.594;2023-12-07T14:22:16;23.77;;;20.88;;
51594;SDS011;37677;53.254;6.594;2023-12-07T14:24:42;22.40;;;18.95;;
51594;SDS011;37677;53.254;6.594;2023-12-07T14:27:08;21.27;;;17.88;;
51594;SDS011;37677;53.254;6.594;2023-12-07T14:29:34;25.17;;;21.13;;
51594;SDS011;37677;53.254;6.594;2023-12-07T14:32:00;22.27;;;19.15;;
51594;SDS011;37677;53.254;6.594;2023-12-07T14:34:26;27.15;;;21.83;;
51594;SDS011;37677;53.254;6.594;2023-12-07T14:36:53;26.23;;;21.40;;
51594;SDS011;37677;53.254;6.594;2023-12-07T14:39:19;25.88;;;19.50;;
51594;SDS011;37677;53.254;6.594;2023-12-07T14:41:46;26.77;;;20.92;;
51594;SDS011;37677;53.254;6.594;2023-12-07T14:44:13;26.33;;;20.30;;
51594;SDS011;37677;53.254;6.594;2023-12-07T14:46:41;25.48;;;21.65;;
51594;SDS011;37677;53.254;6.594;2023-12-07T14:49:08;27.73;;;22.70;;
51594;SDS011;37677;53.254;6.594;2023-12-07T14:51:34;28.27;;;21.40;;
51594;SDS011;37677;53.254;6.594;2023-12-07T14:54:01;29.02;;;22.50;;
51594;SDS011;37677;53.254;6.594;2023-12-07T14:56:33;29.98;;;22.77;;
51594;SDS011;37677;53.254;6.594;2023-12-07T14:59:00;29.95;;;23.17;;
51594;SDS011;37677;53.254;6.594;2023-12-07T15:01:26;30.13;;;22.48;;
51594;SDS011;37677;53.254;6.594;2023-12-07T15:04:02;34.70;;;22.52;;
51594;SDS011;37677;53.254;6.594;2023-12-07T15:06:40;32.30;;;23.80;;
51594;SDS011;37677;53.254;6.594;2023-12-07T15:09:07;32.17;;;22.88;;
51594;SDS011;37677;53.254;6.594;2023-12-07T15:11:33;31.35;;;22.70;;
51594;SDS011;37677;53.254;6.594;2023-12-07T15:14:00;33.70;;;24.73;;
51594;SDS011;37677;53.254;6.594;2023-12-07T15:16:30;46.50;;;24.90;;
51594;SDS011;37677;53.254;6.594;2023-12-07T15:18:57;38.80;;;26.23;;
51594;SDS011;37677;53.254;6.594;2023-12-07T15:21:24;40.30;;;27.83;;
51594;SDS011;37677;53.254;6.594;2023-12-07T15:23:51;39.58;;;26.70;;
51594;SDS011;37677;53.254;6.594;2023-12-07T15:26:20;44.97;;;26.92;;
51594;SDS011;37677;53.254;6.594;2023-12-07T15:28:48;50.08;;;29.00;;
51594;SDS011;37677;53.254;6.594;2023-12-07T15:31:24;45.00;;;26.80;;
51594;SDS011;37677;53.254;6.594;2023-12-07T15:33:51;45.92;;;25.83;;
51594;SDS011;37677;53.254;6.594;2023-12-07T15:36:17;50.35;;;28.95;;
51594;SDS011;37677;53.254;6.594;2023-12-07T15:38:43;57.70;;;31.60;;
51594;SDS011;37677;53.254;6.594;2023-12-07T15:41:10;56.38;;;30.27;;
51594;SDS011;37677;53.254;6.594;2023-12-07T15:43:41;58.70;;;28.80;;
51594;SDS011;37677;53.254;6.594;2023-12-07T15:46:14;64.28;;;30.67;;
51594;SDS011;37677;53.254;6.594;2023-12-07T15:48:50;58.92;;;30.38;;
51594;SDS011;37677;53.254;6.594;2023-12-07T15:53:42;66.43;;;29.47;;
51594;SDS011;37677;53.254;6.594;2023-12-07T15:56:10;66.85;;;32.10;;
51594;SDS011;37677;53.254;6.594;2023-12-07T15:58:36;73.85;;;33.50;;
51594;SDS011;37677;53.254;6.594;2023-12-07T16:01:08;64.47;;;30.27;;
51594;SDS011;37677;53.254;6.594;2023-12-07T16:03:41;68.97;;;32.78;;
51594;SDS011;37677;53.254;6.594;2023-12-07T16:06:07;84.97;;;34.65;;
51594;SDS011;37677;53.254;6.594;2023-12-07T16:08:34;71.82;;;34.65;;
51594;SDS011;37677;53.254;6.594;2023-12-07T16:11:00;79.85;;;35.72;;
51594;SDS011;37677;53.254;6.594;2023-12-07T16:13:26;71.60;;;33.78;;
51594;SDS011;37677;53.254;6.594;2023-12-07T16:15:52;70.15;;;33.75;;
51594;SDS011;37677;53.254;6.594;2023-12-07T16:18:18;68.22;;;35.08;;
51594;SDS011;37677;53.254;6.594;2023-12-07T16:20:44;67.72;;;32.72;;
51594;SDS011;37677;53.254;6.594;2023-12-07T16:23:12;71.40;;;35.25;;
51594;SDS011;37677;53.254;6.594;2023-12-07T16:25:38;79.45;;;37.88;;
51594;SDS011;37677;53.254;6.594;2023-12-07T16:28:05;78.55;;;38.70;;
51594;SDS011;37677;53.254;6.594;2023-12-07T16:30:33;71.03;;;36.45;;
51594;SDS011;37677;53.254;6.594;2023-12-07T16:32:59;76.47;;;37.63;;
51594;SDS011;37677;53.254;6.594;2023-12-07T16:35:27;72.93;;;37.83;;
51594;SDS011;37677;53.254;6.594;2023-12-07T16:37:54;87.55;;;41.90;;
51594;SDS011;37677;53.254;6.594;2023-12-07T16:40:20;75.07;;;38.05;;
51594;SDS011;37677;53.254;6.594;2023-12-07T16:42:47;70.25;;;36.53;;
51594;SDS011;37677;53.254;6.594;2023-12-07T16:45:14;72.72;;;38.28;;
51594;SDS011;37677;53.254;6.594;2023-12-07T16:47:52;72.22;;;36.83;;
51594;SDS011;37677;53.254;6.594;2023-12-07T16:50:19;80.55;;;41.08;;
51594;SDS011;37677;53.254;6.594;2023-12-07T16:52:45;64.97;;;35.17;;
51594;SDS011;37677;53.254;6.594;2023-12-07T16:55:11;65.55;;;37.05;;
51594;SDS011;37677;53.254;6.594;2023-12-07T16:57:37;69.25;;;36.78;;
51594;SDS011;37677;53.254;6.594;2023-12-07T17:00:09;64.68;;;36.38;;
51594;SDS011;37677;53.254;6.594;2023-12-07T17:02:37;66.38;;;36.17;;
51594;SDS011;37677;53.254;6.594;2023-12-07T17:05:03;68.65;;;38.38;;
51594;SDS011;37677;53.254;6.594;2023-12-07T17:07:30;65.05;;;37.78;;
51594;SDS011;37677;53.254;6.594;2023-12-07T17:09:59;66.82;;;36.83;;
51594;SDS011;37677;53.254;6.594;2023-12-07T17:12:25;66.97;;;37.60;;
51594;SDS011;37677;53.254;6.594;2023-12-07T17:14:51;67.93;;;38.25;;
51594;SDS011;37677;53.254;6.594;2023-12-07T17:17:17;58.75;;;35.75;;
51594;SDS011;37677;53.254;6.594;2023-12-07T17:19:43;58.15;;;35.03;;
51594;SDS011;37677;53.254;6.594;2023-12-07T17:22:10;57.03;;;35.63;;
51594;SDS011;37677;53.254;6.594;2023-12-07T17:24:37;64.95;;;36.50;;
51594;SDS011;37677;53.254;6.594;2023-12-07T17:27:05;62.35;;;37.72;;
51594;SDS011;37677;53.254;6.594;2023-12-07T17:29:31;58.90;;;36.08;;
51594;SDS011;37677;53.254;6.594;2023-12-07T17:31:57;59.25;;;34.70;;
51594;SDS011;37677;53.254;6.594;2023-12-07T17:34:23;62.20;;;38.25;;
51594;SDS011;37677;53.254;6.594;2023-12-07T17:36:51;54.40;;;34.30;;
51594;SDS011;37677;53.254;6.594;2023-12-07T17:39:17;58.33;;;34.55;;
51594;SDS011;37677;53.254;6.594;2023-12-07T17:41:44;61.25;;;35.97;;
51594;SDS011;37677;53.254;6.594;2023-12-07T17:44:10;60.45;;;37.35;;
51594;SDS011;37677;53.254;6.594;2023-12-07T17:46:36;65.95;;;38.92;;
51594;SDS011;37677;53.254;6.594;2023-12-07T17:51:38;52.65;;;32.20;;
51594;SDS011;37677;53.254;6.594;2023-12-07T17:54:11;58.88;;;35.80;;
51594;SDS011;37677;53.254;6.594;2023-12-07T17:56:41;64.47;;;37.47;;
51594;SDS011;37677;53.254;6.594;2023-12-07T17:59:09;57.38;;;34.78;;
51594;SDS011;37677;53.254;6.594;2023-12-07T18:01:41;62.47;;;36.63;;
51594;SDS011;37677;53.254;6.594;2023-12-07T18:04:07;62.25;;;36.65;;
51594;SDS011;37677;53.254;6.594;2023-12-07T18:06:43;57.35;;;34.80;;
51594;SDS011;37677;53.254;6.594;2023-12-07T18:09:20;63.75;;;38.45;;
51594;SDS011;37677;53.254;6.594;2023-12-07T18:11:51;53.85;;;33.28;;
51594;SDS011;37677;53.254;6.594;2023-12-07T18:14:18;69.60;;;40.10;;
51594;SDS011;37677;53.254;6.594;2023-12-07T18:16:50;54.10;;;33.58;;
51594;SDS011;37677;53.254;6.594;2023-12-07T18:19:16;59.33;;;36.88;;
51594;SDS011;37677;53.254;6.594;2023-12-07T18:22:00;60.13;;;36.78;;
51594;SDS011;37677;53.254;6.594;2023-12-07T18:27:01;51.15;;;32.90;;
51594;SDS011;37677;53.254;6.594;2023-12-07T18:29:28;46.80;;;31.23;;
51594;SDS011;37677;53.254;6.594;2023-12-07T18:31:54;53.95;;;34.20;;
51594;SDS011;37677;53.254;6.594;2023-12-07T18:34:21;55.90;;;35.38;;
51594;SDS011;37677;53.254;6.594;2023-12-07T18:36:47;62.92;;;40.28;;
51594;SDS011;37677;53.254;6.594;2023-12-07T18:39:16;54.38;;;35.20;;
51594;SDS011;37677;53.254;6.594;2023-12-07T18:41:45;56.30;;;36.80;;